sensor_id;sensor_type;location;lat;lon;timestamp;P1;durP1;ratioP1;P2;durP2;ratioP2
2928;SDS011;1474;51.460;7.150;2023-03-14T00:02:21;5.13;;;1.00;;
2928;SDS011;1474;51.460;7.150;2023-03-14T00:04:47;3.20;;;0.60;;
2928;SDS011;1474;51.460;7.150;2023-03-14T00:07:13;1.40;;;0.82;;
2928;SDS011;1474;51.460;7.150;2023-03-14T00:09:39;5.85;;;1.20;;
2928;SDS011;1474;51.460;7.150;2023-03-14T00:12:05;4.13;;;1.30;;
2928;SDS011;1474;51.460;7.150;2023-03-14T00:14:32;6.03;;;1.33;;
2928;SDS011;1474;51.460;7.150;2023-03-14T00:16:58;5.85;;;1.83;;
2928;SDS011;1474;51.460;7.150;2023-03-14T00:19:23;3.28;;;0.70;;
2928;SDS011;1474;51.460;7.150;2023-03-14T00:21:49;1.63;;;0.95;;
2928;SDS011;1474;51.460;7.150;2023-03-14T00:24:14;2.33;;;0.68;;
2928;SDS011;1474;51.460;7.150;2023-03-14T00:26:40;2.22;;;0.73;;
2928;SDS011;1474;51.460;7.150;2023-03-14T00:29:06;1.13;;;0.68;;
2928;SDS011;1474;51.460;7.150;2023-03-14T00:31:31;3.60;;;0.65;;
2928;SDS011;1474;51.460;7.150;2023-03-14T00:33:57;2.83;;;0.77;;
2928;SDS011;1474;51.460;7.150;2023-03-14T00:36:23;3.15;;;1.00;;
2928;SDS011;1474;51.460;7.150;2023-03-14T00:38:49;3.15;;;0.88;;
2928;SDS011;1474;51.460;7.150;2023-03-14T00:41:20;3.50;;;0.88;;
2928;SDS011;1474;51.460;7.150;2023-03-14T00:43:47;3.42;;;0.80;;
2928;SDS011;1474;51.460;7.150;2023-03-14T00:46:14;2.97;;;1.00;;
2928;SDS011;1474;51.460;7.150;2023-03-14T00:48:40;2.80;;;0.98;;
2928;SDS011;1474;51.460;7.150;2023-03-14T00:51:06;3.45;;;1.17;;
2928;SDS011;1474;51.460;7.150;2023-03-14T00:53:36;1.90;;;0.77;;
2928;SDS011;1474;51.460;7.150;2023-03-14T00:56:04;5.15;;;1.08;;
2928;SDS011;1474;51.460;7.150;2023-03-14T00:58:31;3.85;;;1.65;;
2928;SDS011;1474;51.460;7.150;2023-03-14T01:00:57;4.43;;;0.75;;
2928;SDS011;1474;51.460;7.150;2023-03-14T01:03:22;1.63;;;0.68;;
2928;SDS011;1474;51.460;7.150;2023-03-14T01:05:49;1.17;;;0.93;;
2928;SDS011;1474;51.460;7.150;2023-03-14T01:08:14;1.42;;;0.40;;
2928;SDS011;1474;51.460;7.150;2023-03-14T01:10:40;0.40;;;0.40;;
2928;SDS011;1474;51.460;7.150;2023-03-14T01:13:07;0.47;;;0.35;;
2928;SDS011;1474;51.460;7.150;2023-03-14T01:15:33;0.77;;;0.55;;
2928;SDS011;1474;51.460;7.150;2023-03-14T01:18:00;1.15;;;0.47;;
2928;SDS011;1474;51.460;7.150;2023-03-14T01:20:26;0.68;;;0.45;;
2928;SDS011;1474;51.460;7.150;2023-03-14T01:22:52;0.45;;;0.30;;
2928;SDS011;1474;51.460;7.150;2023-03-14T01:25:17;0.28;;;0.28;;
2928;SDS011;1474;51.460;7.150;2023-03-14T01:27:43;0.82;;;0.40;;
2928;SDS011;1474;51.460;7.150;2023-03-14T01:30:09;2.38;;;0.68;;
2928;SDS011;1474;51.460;7.150;2023-03-14T01:32:36;0.93;;;0.30;;
2928;SDS011;1474;51.460;7.150;2023-03-14T01:35:03;2.67;;;0.47;;
2928;SDS011;1474;51.460;7.150;2023-03-14T01:37:28;3.33;;;0.70;;
2928;SDS011;1474;51.460;7.150;2023-03-14T01:39:54;2.40;;;0.60;;
2928;SDS011;1474;51.460;7.150;2023-03-14T01:42:20;5.25;;;0.60;;
2928;SDS011;1474;51.460;7.150;2023-03-14T01:44:47;1.15;;;0.50;;
2928;SDS011;1474;51.460;7.150;2023-03-14T01:47:17;1.27;;;0.63;;
2928;SDS011;1474;51.460;7.150;2023-03-14T01:49:43;0.60;;;0.60;;
2928;SDS011;1474;51.460;7.150;2023-03-14T01:52:19;1.10;;;0.65;;
2928;SDS011;1474;51.460;7.150;2023-03-14T01:54:50;1.75;;;0.50;;
2928;SDS011;1474;51.460;7.150;2023-03-14T02:00:15;2.42;;;0.98;;
2928;SDS011;1474;51.460;7.150;2023-03-14T02:02:48;0.77;;;0.25;;
2928;SDS011;1474;51.460;7.150;2023-03-14T02:05:21;3.55;;;1.33;;
2928;SDS011;1474;51.460;7.150;2023-03-14T02:07:50;4.70;;;0.55;;
2928;SDS011;1474;51.460;7.150;2023-03-14T02:10:17;1.38;;;0.60;;
2928;SDS011;1474;51.460;7.150;2023-03-14T02:12:46;1.35;;;0.65;;
2928;SDS011;1474;51.460;7.150;2023-03-14T02:15:12;0.98;;;0.52;;
2928;SDS011;1474;51.460;7.150;2023-03-14T02:17:39;3.50;;;0.77;;
2928;SDS011;1474;51.460;7.150;2023-03-14T02:20:50;0.70;;;0.32;;
2928;SDS011;1474;51.460;7.150;2023-03-14T02:23:01;1.38;;;0.60;;
2928;SDS011;1474;51.460;7.150;2023-03-14T02:27:56;3.63;;;0.80;;
2928;SDS011;1474;51.460;7.150;2023-03-14T02:30:23;3.63;;;0.60;;
2928;SDS011;1474;51.460;7.150;2023-03-14T02:32:52;1.35;;;0.70;;
2928;SDS011;1474;51.460;7.150;2023-03-14T02:35:27;4.10;;;0.65;;
2928;SDS011;1474;51.460;7.150;2023-03-14T02:40:50;1.20;;;0.68;;
2928;SDS011;1474;51.460;7.150;2023-03-14T02:43:16;2.78;;;0.80;;
2928;SDS011;1474;51.460;7.150;2023-03-14T02:45:43;2.72;;;0.45;;
2928;SDS011;1474;51.460;7.150;2023-03-14T02:48:23;2.42;;;0.90;;
2928;SDS011;1474;51.460;7.150;2023-03-14T02:50:52;6.60;;;1.58;;
2928;SDS011;1474;51.460;7.150;2023-03-14T02:53:23;3.60;;;0.82;;
2928;SDS011;1474;51.460;7.150;2023-03-14T02:55:54;3.30;;;0.85;;
2928;SDS011;1474;51.460;7.150;2023-03-14T02:58:19;0.90;;;0.32;;
2928;SDS011;1474;51.460;7.150;2023-03-14T03:00:46;6.68;;;1.10;;
2928;SDS011;1474;51.460;7.150;2023-03-14T03:03:12;3.33;;;1.02;;
2928;SDS011;1474;51.460;7.150;2023-03-14T03:05:38;0.88;;;0.75;;
2928;SDS011;1474;51.460;7.150;2023-03-14T03:08:04;1.35;;;0.80;;
2928;SDS011;1474;51.460;7.150;2023-03-14T03:10:30;3.83;;;0.77;;
2928;SDS011;1474;51.460;7.150;2023-03-14T03:12:56;3.60;;;0.88;;
2928;SDS011;1474;51.460;7.150;2023-03-14T03:15:22;1.55;;;0.43;;
2928;SDS011;1474;51.460;7.150;2023-03-14T03:17:49;1.70;;;0.73;;
2928;SDS011;1474;51.460;7.150;2023-03-14T03:20:14;5.20;;;0.75;;
2928;SDS011;1474;51.460;7.150;2023-03-14T03:22:40;1.42;;;0.73;;
2928;SDS011;1474;51.460;7.150;2023-03-14T03:25:07;2.80;;;1.13;;
2928;SDS011;1474;51.460;7.150;2023-03-14T03:27:34;3.33;;;0.70;;
2928;SDS011;1474;51.460;7.150;2023-03-14T03:30:01;4.38;;;0.60;;
2928;SDS011;1474;51.460;7.150;2023-03-14T03:32:28;4.18;;;0.60;;
2928;SDS011;1474;51.460;7.150;2023-03-14T03:34:54;2.28;;;0.70;;
2928;SDS011;1474;51.460;7.150;2023-03-14T03:37:19;1.33;;;0.70;;
2928;SDS011;1474;51.460;7.150;2023-03-14T03:39:45;2.35;;;0.50;;
2928;SDS011;1474;51.460;7.150;2023-03-14T03:42:10;6.13;;;0.70;;
2928;SDS011;1474;51.460;7.150;2023-03-14T03:44:36;6.32;;;0.88;;
2928;SDS011;1474;51.460;7.150;2023-03-14T03:47:02;3.95;;;0.95;;
2928;SDS011;1474;51.460;7.150;2023-03-14T03:49:28;2.83;;;0.60;;
2928;SDS011;1474;51.460;7.150;2023-03-14T03:51:55;2.40;;;0.90;;
2928;SDS011;1474;51.460;7.150;2023-03-14T03:54:20;1.52;;;0.57;;
2928;SDS011;1474;51.460;7.150;2023-03-14T03:56:46;1.65;;;0.82;;
2928;SDS011;1474;51.460;7.150;2023-03-14T03:59:12;2.00;;;0.77;;
2928;SDS011;1474;51.460;7.150;2023-03-14T04:01:37;1.35;;;0.52;;
2928;SDS011;1474;51.460;7.150;2023-03-14T04:04:03;5.55;;;1.10;;
2928;SDS011;1474;51.460;7.150;2023-03-14T04:06:29;3.80;;;1.10;;
2928;SDS011;1474;51.460;7.150;2023-03-14T04:08:54;1.80;;;0.75;;
2928;SDS011;1474;51.460;7.150;2023-03-14T04:11:20;2.25;;;0.77;;
2928;SDS011;1474;51.460;7.150;2023-03-14T04:13:46;2.30;;;1.13;;
2928;SDS011;1474;51.460;7.150;2023-03-14T04:16:16;2.72;;;1.42;;
2928;SDS011;1474;51.460;7.150;2023-03-14T04:18:44;2.38;;;0.50;;
2928;SDS011;1474;51.460;7.150;2023-03-14T04:21:09;1.15;;;0.50;;
2928;SDS011;1474;51.460;7.150;2023-03-14T04:23:35;4.13;;;0.80;;
2928;SDS011;1474;51.460;7.150;2023-03-14T04:26:01;0.47;;;0.47;;
2928;SDS011;1474;51.460;7.150;2023-03-14T04:28:27;0.88;;;0.50;;
2928;SDS011;1474;51.460;7.150;2023-03-14T04:30:53;0.63;;;0.15;;
2928;SDS011;1474;51.460;7.150;2023-03-14T04:33:19;1.45;;;0.65;;
2928;SDS011;1474;51.460;7.150;2023-03-14T04:35:45;0.47;;;0.30;;
2928;SDS011;1474;51.460;7.150;2023-03-14T04:38:11;0.32;;;0.30;;
2928;SDS011;1474;51.460;7.150;2023-03-14T04:40:38;2.45;;;0.32;;
2928;SDS011;1474;51.460;7.150;2023-03-14T04:43:07;0.85;;;0.65;;
2928;SDS011;1474;51.460;7.150;2023-03-14T04:45:34;0.32;;;0.32;;
2928;SDS011;1474;51.460;7.150;2023-03-14T04:48:00;0.75;;;0.30;;
2928;SDS011;1474;51.460;7.150;2023-03-14T04:50:26;0.20;;;0.20;;
2928;SDS011;1474;51.460;7.150;2023-03-14T04:52:51;0.90;;;0.45;;
2928;SDS011;1474;51.460;7.150;2023-03-14T04:55:17;2.33;;;0.60;;
2928;SDS011;1474;51.460;7.150;2023-03-14T04:57:42;2.65;;;0.40;;
2928;SDS011;1474;51.460;7.150;2023-03-14T05:00:08;1.23;;;0.30;;
2928;SDS011;1474;51.460;7.150;2023-03-14T05:02:35;0.20;;;0.20;;
2928;SDS011;1474;51.460;7.150;2023-03-14T05:05:00;0.43;;;0.43;;
2928;SDS011;1474;51.460;7.150;2023-03-14T05:07:26;0.25;;;0.15;;
2928;SDS011;1474;51.460;7.150;2023-03-14T05:09:52;0.20;;;0.20;;
2928;SDS011;1474;51.460;7.150;2023-03-14T05:12:20;0.20;;;0.20;;
2928;SDS011;1474;51.460;7.150;2023-03-14T05:14:46;1.50;;;0.30;;
2928;SDS011;1474;51.460;7.150;2023-03-14T05:17:12;0.17;;;0.17;;
2928;SDS011;1474;51.460;7.150;2023-03-14T05:19:39;0.10;;;0.10;;
2928;SDS011;1474;51.460;7.150;2023-03-14T05:22:05;0.20;;;0.20;;
2928;SDS011;1474;51.460;7.150;2023-03-14T05:24:32;0.30;;;0.28;;
2928;SDS011;1474;51.460;7.150;2023-03-14T05:26:58;2.47;;;0.22;;
2928;SDS011;1474;51.460;7.150;2023-03-14T05:29:23;0.20;;;0.10;;
2928;SDS011;1474;51.460;7.150;2023-03-14T05:31:49;0.60;;;0.30;;
2928;SDS011;1474;51.460;7.150;2023-03-14T05:34:15;0.17;;;0.10;;
2928;SDS011;1474;51.460;7.150;2023-03-14T05:36:40;0.38;;;0.30;;
2928;SDS011;1474;51.460;7.150;2023-03-14T05:39:06;0.32;;;0.28;;
2928;SDS011;1474;51.460;7.150;2023-03-14T05:41:31;0.98;;;0.15;;
2928;SDS011;1474;51.460;7.150;2023-03-14T05:43:58;0.40;;;0.13;;
2928;SDS011;1474;51.460;7.150;2023-03-14T05:46:24;1.23;;;0.20;;
2928;SDS011;1474;51.460;7.150;2023-03-14T05:48:49;0.32;;;0.30;;
2928;SDS011;1474;51.460;7.150;2023-03-14T05:51:15;0.20;;;0.20;;
2928;SDS011;1474;51.460;7.150;2023-03-14T05:53:41;0.20;;;0.20;;
2928;SDS011;1474;51.460;7.150;2023-03-14T05:56:06;0.73;;;0.73;;
2928;SDS011;1474;51.460;7.150;2023-03-14T05:58:32;0.32;;;0.30;;
2928;SDS011;1474;51.460;7.150;2023-03-14T06:01:01;0.57;;;0.43;;
2928;SDS011;1474;51.460;7.150;2023-03-14T06:03:28;0.97;;;0.53;;
2928;SDS011;1474;51.460;7.150;2023-03-14T06:05:54;1.10;;;0.65;;
2928;SDS011;1474;51.460;7.150;2023-03-14T06:08:19;1.33;;;0.70;;
2928;SDS011;1474;51.460;7.150;2023-03-14T06:10:45;1.48;;;0.80;;
2928;SDS011;1474;51.460;7.150;2023-03-14T06:13:10;1.27;;;0.82;;
2928;SDS011;1474;51.460;7.150;2023-03-14T06:15:36;3.42;;;1.38;;
2928;SDS011;1474;51.460;7.150;2023-03-14T06:18:01;4.38;;;1.38;;
2928;SDS011;1474;51.460;7.150;2023-03-14T06:20:27;2.50;;;1.50;;
2928;SDS011;1474;51.460;7.150;2023-03-14T06:22:53;1.92;;;0.77;;
2928;SDS011;1474;51.460;7.150;2023-03-14T06:25:18;1.25;;;0.73;;
2928;SDS011;1474;51.460;7.150;2023-03-14T06:27:44;4.90;;;1.15;;
2928;SDS011;1474;51.460;7.150;2023-03-14T06:30:10;1.02;;;0.70;;
2928;SDS011;1474;51.460;7.150;2023-03-14T06:32:36;3.35;;;1.33;;
2928;SDS011;1474;51.460;7.150;2023-03-14T06:35:01;1.90;;;0.68;;
2928;SDS011;1474;51.460;7.150;2023-03-14T06:37:27;2.67;;;0.95;;
2928;SDS011;1474;51.460;7.150;2023-03-14T06:39:54;2.40;;;0.68;;
2928;SDS011;1474;51.460;7.150;2023-03-14T06:42:20;0.73;;;0.47;;
2928;SDS011;1474;51.460;7.150;2023-03-14T06:44:45;0.95;;;0.55;;
2928;SDS011;1474;51.460;7.150;2023-03-14T06:47:11;0.40;;;0.40;;
2928;SDS011;1474;51.460;7.150;2023-03-14T06:49:37;0.88;;;0.88;;
2928;SDS011;1474;51.460;7.150;2023-03-14T06:52:03;1.20;;;0.60;;
2928;SDS011;1474;51.460;7.150;2023-03-14T06:54:28;0.63;;;0.40;;
2928;SDS011;1474;51.460;7.150;2023-03-14T06:56:54;0.43;;;0.43;;
2928;SDS011;1474;51.460;7.150;2023-03-14T06:59:20;1.17;;;0.60;;
2928;SDS011;1474;51.460;7.150;2023-03-14T07:01:45;0.38;;;0.38;;
2928;SDS011;1474;51.460;7.150;2023-03-14T07:04:12;0.52;;;0.50;;
2928;SDS011;1474;51.460;7.150;2023-03-14T07:06:38;0.43;;;0.20;;
2928;SDS011;1474;51.460;7.150;2023-03-14T07:09:09;0.45;;;0.30;;
2928;SDS011;1474;51.460;7.150;2023-03-14T07:11:35;0.60;;;0.45;;
2928;SDS011;1474;51.460;7.150;2023-03-14T07:14:01;0.68;;;0.50;;
2928;SDS011;1474;51.460;7.150;2023-03-14T07:16:26;1.45;;;0.30;;
2928;SDS011;1474;51.460;7.150;2023-03-14T07:18:54;1.65;;;0.60;;
2928;SDS011;1474;51.460;7.150;2023-03-14T07:21:19;0.30;;;0.30;;
2928;SDS011;1474;51.460;7.150;2023-03-14T07:23:45;0.85;;;0.57;;
2928;SDS011;1474;51.460;7.150;2023-03-14T07:26:10;0.40;;;0.30;;
2928;SDS011;1474;51.460;7.150;2023-03-14T07:28:36;0.63;;;0.55;;
2928;SDS011;1474;51.460;7.150;2023-03-14T07:31:02;0.98;;;0.32;;
2928;SDS011;1474;51.460;7.150;2023-03-14T07:33:27;0.75;;;0.38;;
2928;SDS011;1474;51.460;7.150;2023-03-14T07:35:53;0.70;;;0.30;;
2928;SDS011;1474;51.460;7.150;2023-03-14T07:38:18;0.38;;;0.30;;
2928;SDS011;1474;51.460;7.150;2023-03-14T07:40:44;3.67;;;0.43;;
2928;SDS011;1474;51.460;7.150;2023-03-14T07:43:10;1.25;;;0.50;;
2928;SDS011;1474;51.460;7.150;2023-03-14T07:45:36;1.95;;;0.30;;
2928;SDS011;1474;51.460;7.150;2023-03-14T07:48:01;1.25;;;0.50;;
2928;SDS011;1474;51.460;7.150;2023-03-14T07:50:27;0.50;;;0.32;;
2928;SDS011;1474;51.460;7.150;2023-03-14T07:52:53;0.60;;;0.60;;
2928;SDS011;1474;51.460;7.150;2023-03-14T07:55:19;0.47;;;0.45;;
2928;SDS011;1474;51.460;7.150;2023-03-14T07:57:45;1.25;;;0.63;;
2928;SDS011;1474;51.460;7.150;2023-03-14T08:00:11;0.77;;;0.40;;
2928;SDS011;1474;51.460;7.150;2023-03-14T08:02:39;1.30;;;0.60;;
2928;SDS011;1474;51.460;7.150;2023-03-14T08:05:05;1.13;;;0.50;;
2928;SDS011;1474;51.460;7.150;2023-03-14T08:07:31;0.45;;;0.45;;
2928;SDS011;1474;51.460;7.150;2023-03-14T08:09:56;0.70;;;0.70;;
2928;SDS011;1474;51.460;7.150;2023-03-14T08:12:22;0.68;;;0.68;;
2928;SDS011;1474;51.460;7.150;2023-03-14T08:14:47;0.50;;;0.50;;
2928;SDS011;1474;51.460;7.150;2023-03-14T08:17:13;0.52;;;0.52;;
2928;SDS011;1474;51.460;7.150;2023-03-14T08:19:40;1.48;;;0.50;;
2928;SDS011;1474;51.460;7.150;2023-03-14T08:22:06;2.60;;;0.52;;
2928;SDS011;1474;51.460;7.150;2023-03-14T08:24:32;0.60;;;0.60;;
2928;SDS011;1474;51.460;7.150;2023-03-14T08:26:58;0.95;;;0.50;;
2928;SDS011;1474;51.460;7.150;2023-03-14T08:29:23;0.52;;;0.52;;
2928;SDS011;1474;51.460;7.150;2023-03-14T08:31:49;0.45;;;0.45;;
2928;SDS011;1474;51.460;7.150;2023-03-14T08:34:15;1.27;;;0.90;;
2928;SDS011;1474;51.460;7.150;2023-03-14T08:36:40;0.88;;;0.70;;
2928;SDS011;1474;51.460;7.150;2023-03-14T08:39:07;3.10;;;1.08;;
2928;SDS011;1474;51.460;7.150;2023-03-14T08:41:33;0.95;;;0.70;;
2928;SDS011;1474;51.460;7.150;2023-03-14T08:44:00;1.10;;;0.57;;
2928;SDS011;1474;51.460;7.150;2023-03-14T08:46:25;0.60;;;0.60;;
2928;SDS011;1474;51.460;7.150;2023-03-14T08:48:51;1.38;;;0.68;;
2928;SDS011;1474;51.460;7.150;2023-03-14T08:51:16;0.63;;;0.57;;
2928;SDS011;1474;51.460;7.150;2023-03-14T08:53:42;1.10;;;0.80;;
2928;SDS011;1474;51.460;7.150;2023-03-14T08:56:08;0.60;;;0.60;;
2928;SDS011;1474;51.460;7.150;2023-03-14T08:58:35;2.25;;;0.80;;
2928;SDS011;1474;51.460;7.150;2023-03-14T09:01:03;0.60;;;0.60;;
2928;SDS011;1474;51.460;7.150;2023-03-14T09:03:29;1.65;;;1.38;;
2928;SDS011;1474;51.460;7.150;2023-03-14T09:05:55;2.10;;;1.10;;
2928;SDS011;1474;51.460;7.150;2023-03-14T09:08:21;1.08;;;0.68;;
2928;SDS011;1474;51.460;7.150;2023-03-14T09:10:46;2.00;;;0.80;;
2928;SDS011;1474;51.460;7.150;2023-03-14T09:13:12;1.17;;;1.08;;
2928;SDS011;1474;51.460;7.150;2023-03-14T09:15:37;2.15;;;1.30;;
2928;SDS011;1474;51.460;7.150;2023-03-14T09:18:03;1.20;;;1.00;;
2928;SDS011;1474;51.460;7.150;2023-03-14T09:20:29;1.35;;;1.23;;
2928;SDS011;1474;51.460;7.150;2023-03-14T09:22:55;2.53;;;1.10;;
2928;SDS011;1474;51.460;7.150;2023-03-14T09:25:20;0.88;;;0.77;;
2928;SDS011;1474;51.460;7.150;2023-03-14T09:27:46;1.20;;;1.10;;
2928;SDS011;1474;51.460;7.150;2023-03-14T09:30:11;1.77;;;0.70;;
2928;SDS011;1474;51.460;7.150;2023-03-14T09:32:37;1.45;;;0.98;;
2928;SDS011;1474;51.460;7.150;2023-03-14T09:35:03;1.33;;;1.13;;
2928;SDS011;1474;51.460;7.150;2023-03-14T09:37:29;1.95;;;0.60;;
2928;SDS011;1474;51.460;7.150;2023-03-14T09:39:54;0.30;;;0.30;;
2928;SDS011;1474;51.460;7.150;2023-03-14T09:42:24;1.90;;;0.28;;
2928;SDS011;1474;51.460;7.150;2023-03-14T09:45:11;0.30;;;0.30;;
2928;SDS011;1474;51.460;7.150;2023-03-14T09:47:43;0.80;;;0.55;;
2928;SDS011;1474;51.460;7.150;2023-03-14T09:50:12;0.30;;;0.30;;
2928;SDS011;1474;51.460;7.150;2023-03-14T09:52:39;0.70;;;0.52;;
2928;SDS011;1474;51.460;7.150;2023-03-14T09:55:11;0.60;;;0.60;;
2928;SDS011;1474;51.460;7.150;2023-03-14T09:57:41;1.25;;;0.55;;
2928;SDS011;1474;51.460;7.150;2023-03-14T10:02:47;0.60;;;0.60;;
2928;SDS011;1474;51.460;7.150;2023-03-14T10:05:21;1.13;;;0.60;;
2928;SDS011;1474;51.460;7.150;2023-03-14T10:07:49;1.00;;;0.55;;
2928;SDS011;1474;51.460;7.150;2023-03-14T10:12:44;0.95;;;0.85;;
2928;SDS011;1474;51.460;7.150;2023-03-14T10:15:12;0.85;;;0.60;;
2928;SDS011;1474;51.460;7.150;2023-03-14T10:17:49;1.98;;;1.10;;
2928;SDS011;1474;51.460;7.150;2023-03-14T10:20:33;1.35;;;1.02;;
2928;SDS011;1474;51.460;7.150;2023-03-14T10:23:45;0.80;;;0.80;;
2928;SDS011;1474;51.460;7.150;2023-03-14T10:26:03;1.55;;;0.85;;
2928;SDS011;1474;51.460;7.150;2023-03-14T10:28:31;0.75;;;0.70;;
2928;SDS011;1474;51.460;7.150;2023-03-14T10:30:58;2.25;;;1.10;;
2928;SDS011;1474;51.460;7.150;2023-03-14T10:35:56;1.40;;;0.75;;
2928;SDS011;1474;51.460;7.150;2023-03-14T10:38:28;1.20;;;0.88;;
2928;SDS011;1474;51.460;7.150;2023-03-14T10:40:56;0.98;;;0.88;;
2928;SDS011;1474;51.460;7.150;2023-03-14T10:43:24;2.03;;;1.40;;
2928;SDS011;1474;51.460;7.150;2023-03-14T10:46:05;1.38;;;0.95;;
2928;SDS011;1474;51.460;7.150;2023-03-14T10:48:43;0.90;;;0.63;;
2928;SDS011;1474;51.460;7.150;2023-03-14T10:53:46;1.55;;;1.10;;
2928;SDS011;1474;51.460;7.150;2023-03-14T10:56:14;1.42;;;0.80;;
2928;SDS011;1474;51.460;7.150;2023-03-14T10:58:51;0.88;;;0.55;;
2928;SDS011;1474;51.460;7.150;2023-03-14T11:01:29;1.00;;;0.88;;
2928;SDS011;1474;51.460;7.150;2023-03-14T11:07:41;2.63;;;0.80;;
2928;SDS011;1474;51.460;7.150;2023-03-14T11:15:33;0.93;;;0.50;;
2928;SDS011;1474;51.460;7.150;2023-03-14T11:24:06;0.65;;;0.65;;
2928;SDS011;1474;51.460;7.150;2023-03-14T11:27:12;1.63;;;0.70;;
2928;SDS011;1474;51.460;7.150;2023-03-14T11:29:50;0.47;;;0.47;;
2928;SDS011;1474;51.460;7.150;2023-03-14T11:32:43;2.20;;;1.13;;
2928;SDS011;1474;51.460;7.150;2023-03-14T11:38:03;3.03;;;1.13;;
2928;SDS011;1474;51.460;7.150;2023-03-14T11:40:48;1.25;;;0.95;;
2928;SDS011;1474;51.460;7.150;2023-03-14T11:43:18;1.25;;;0.98;;
2928;SDS011;1474;51.460;7.150;2023-03-14T11:45:52;1.55;;;0.95;;
2928;SDS011;1474;51.460;7.150;2023-03-14T11:48:37;0.90;;;0.80;;
2928;SDS011;1474;51.460;7.150;2023-03-14T11:51:29;0.80;;;0.70;;
2928;SDS011;1474;51.460;7.150;2023-03-14T11:54:22;2.65;;;1.88;;
2928;SDS011;1474;51.460;7.150;2023-03-14T11:56:53;0.98;;;0.95;;
2928;SDS011;1474;51.460;7.150;2023-03-14T12:15:40;0.73;;;0.50;;
2928;SDS011;1474;51.460;7.150;2023-03-14T12:18:32;1.02;;;0.75;;
2928;SDS011;1474;51.460;7.150;2023-03-14T12:21:04;1.00;;;0.75;;
2928;SDS011;1474;51.460;7.150;2023-03-14T12:26:18;2.25;;;1.10;;
2928;SDS011;1474;51.460;7.150;2023-03-14T12:28:50;3.22;;;1.58;;
2928;SDS011;1474;51.460;7.150;2023-03-14T12:42:40;1.60;;;1.10;;
2928;SDS011;1474;51.460;7.150;2023-03-14T12:47:50;2.63;;;1.10;;
2928;SDS011;1474;51.460;7.150;2023-03-14T12:50:20;1.10;;;1.00;;
2928;SDS011;1474;51.460;7.150;2023-03-14T12:55:41;3.92;;;1.17;;
2928;SDS011;1474;51.460;7.150;2023-03-14T12:58:39;3.05;;;0.93;;
2928;SDS011;1474;51.460;7.150;2023-03-14T13:01:23;6.82;;;0.93;;
2928;SDS011;1474;51.460;7.150;2023-03-14T13:03:52;2.33;;;0.93;;
2928;SDS011;1474;51.460;7.150;2023-03-14T13:12:09;0.93;;;0.73;;
2928;SDS011;1474;51.460;7.150;2023-03-14T13:14:37;5.20;;;1.13;;
2928;SDS011;1474;51.460;7.150;2023-03-14T13:17:10;1.05;;;0.80;;
2928;SDS011;1474;51.460;7.150;2023-03-14T13:19:37;4.28;;;1.30;;
2928;SDS011;1474;51.460;7.150;2023-03-14T13:22:04;2.22;;;0.90;;
2928;SDS011;1474;51.460;7.150;2023-03-14T13:25:00;1.80;;;1.00;;
2928;SDS011;1474;51.460;7.150;2023-03-14T13:27:35;3.50;;;1.40;;
2928;SDS011;1474;51.460;7.150;2023-03-14T13:32:44;4.82;;;1.80;;
2928;SDS011;1474;51.460;7.150;2023-03-14T13:35:24;3.03;;;2.13;;
2928;SDS011;1474;51.460;7.150;2023-03-14T13:37:54;5.97;;;1.90;;
2928;SDS011;1474;51.460;7.150;2023-03-14T13:40:26;6.80;;;1.73;;
2928;SDS011;1474;51.460;7.150;2023-03-14T13:43:05;6.40;;;1.20;;
2928;SDS011;1474;51.460;7.150;2023-03-14T13:45:50;4.43;;;1.08;;
2928;SDS011;1474;51.460;7.150;2023-03-14T13:48:18;9.32;;;1.83;;
2928;SDS011;1474;51.460;7.150;2023-03-14T13:50:45;5.38;;;1.63;;
2928;SDS011;1474;51.460;7.150;2023-03-14T13:53:16;9.18;;;1.67;;
2928;SDS011;1474;51.460;7.150;2023-03-14T13:55:42;5.97;;;0.90;;
2928;SDS011;1474;51.460;7.150;2023-03-14T13:58:19;5.78;;;1.25;;
2928;SDS011;1474;51.460;7.150;2023-03-14T14:00:54;3.08;;;1.33;;
2928;SDS011;1474;51.460;7.150;2023-03-14T14:03:24;2.35;;;0.85;;
2928;SDS011;1474;51.460;7.150;2023-03-14T14:05:50;4.25;;;0.88;;
2928;SDS011;1474;51.460;7.150;2023-03-14T14:08:16;3.58;;;1.10;;
2928;SDS011;1474;51.460;7.150;2023-03-14T14:10:42;7.20;;;1.42;;
2928;SDS011;1474;51.460;7.150;2023-03-14T14:13:08;6.38;;;0.98;;
2928;SDS011;1474;51.460;7.150;2023-03-14T14:15:43;8.68;;;1.60;;
2928;SDS011;1474;51.460;7.150;2023-03-14T14:18:12;6.38;;;2.20;;
2928;SDS011;1474;51.460;7.150;2023-03-14T14:20:41;6.88;;;1.52;;
2928;SDS011;1474;51.460;7.150;2023-03-14T14:23:11;6.70;;;1.98;;
2928;SDS011;1474;51.460;7.150;2023-03-14T14:25:40;4.97;;;1.13;;
2928;SDS011;1474;51.460;7.150;2023-03-14T14:28:15;2.75;;;1.00;;
2928;SDS011;1474;51.460;7.150;2023-03-14T14:31:04;1.92;;;0.82;;
2928;SDS011;1474;51.460;7.150;2023-03-14T14:33:46;4.90;;;1.33;;
2928;SDS011;1474;51.460;7.150;2023-03-14T14:36:19;5.00;;;0.95;;
2928;SDS011;1474;51.460;7.150;2023-03-14T14:38:56;5.97;;;1.50;;
2928;SDS011;1474;51.460;7.150;2023-03-14T14:41:34;2.47;;;1.52;;
2928;SDS011;1474;51.460;7.150;2023-03-14T14:44:04;2.42;;;0.90;;
2928;SDS011;1474;51.460;7.150;2023-03-14T14:46:31;9.20;;;1.00;;
2928;SDS011;1474;51.460;7.150;2023-03-14T14:49:01;8.20;;;1.98;;
2928;SDS011;1474;51.460;7.150;2023-03-14T14:51:40;5.50;;;1.02;;
2928;SDS011;1474;51.460;7.150;2023-03-14T14:54:12;5.60;;;1.15;;
2928;SDS011;1474;51.460;7.150;2023-03-14T14:56:47;7.25;;;1.42;;
2928;SDS011;1474;51.460;7.150;2023-03-14T14:59:23;2.25;;;0.80;;
2928;SDS011;1474;51.460;7.150;2023-03-14T15:01:55;2.03;;;0.57;;
2928;SDS011;1474;51.460;7.150;2023-03-14T15:04:25;4.35;;;1.48;;
2928;SDS011;1474;51.460;7.150;2023-03-14T15:06:51;4.95;;;1.35;;
2928;SDS011;1474;51.460;7.150;2023-03-14T15:09:18;4.97;;;0.57;;
2928;SDS011;1474;51.460;7.150;2023-03-14T15:11:45;9.38;;;1.00;;
2928;SDS011;1474;51.460;7.150;2023-03-14T15:14:11;7.35;;;1.33;;
2928;SDS011;1474;51.460;7.150;2023-03-14T15:16:37;3.17;;;0.70;;
2928;SDS011;1474;51.460;7.150;2023-03-14T15:19:08;7.53;;;1.70;;
2928;SDS011;1474;51.460;7.150;2023-03-14T15:21:49;2.85;;;0.77;;
2928;SDS011;1474;51.460;7.150;2023-03-14T15:24:15;4.15;;;0.90;;
2928;SDS011;1474;51.460;7.150;2023-03-14T15:26:41;3.00;;;0.77;;
2928;SDS011;1474;51.460;7.150;2023-03-14T15:29:09;1.73;;;0.95;;
2928;SDS011;1474;51.460;7.150;2023-03-14T15:31:37;2.33;;;0.70;;
2928;SDS011;1474;51.460;7.150;2023-03-14T15:34:03;5.45;;;1.30;;
2928;SDS011;1474;51.460;7.150;2023-03-14T15:36:30;2.15;;;0.70;;
2928;SDS011;1474;51.460;7.150;2023-03-14T15:38:58;3.35;;;0.77;;
2928;SDS011;1474;51.460;7.150;2023-03-14T15:41:25;3.50;;;1.10;;
2928;SDS011;1474;51.460;7.150;2023-03-14T15:43:53;4.80;;;0.80;;
2928;SDS011;1474;51.460;7.150;2023-03-14T15:46:19;3.20;;;0.75;;
2928;SDS011;1474;51.460;7.150;2023-03-14T15:48:46;3.80;;;1.05;;
2928;SDS011;1474;51.460;7.150;2023-03-14T15:51:13;1.05;;;0.30;;
2928;SDS011;1474;51.460;7.150;2023-03-14T15:53:39;2.25;;;0.70;;
2928;SDS011;1474;51.460;7.150;2023-03-14T15:56:05;3.63;;;0.68;;
2928;SDS011;1474;51.460;7.150;2023-03-14T15:58:32;1.80;;;0.50;;
2928;SDS011;1474;51.460;7.150;2023-03-14T16:00:59;3.20;;;0.70;;
2928;SDS011;1474;51.460;7.150;2023-03-14T16:03:26;3.97;;;0.57;;
2928;SDS011;1474;51.460;7.150;2023-03-14T16:05:53;3.35;;;0.60;;
2928;SDS011;1474;51.460;7.150;2023-03-14T16:08:19;0.75;;;0.60;;
2928;SDS011;1474;51.460;7.150;2023-03-14T16:10:45;3.42;;;0.68;;
2928;SDS011;1474;51.460;7.150;2023-03-14T16:13:11;10.07;;;1.00;;
2928;SDS011;1474;51.460;7.150;2023-03-14T16:15:37;4.38;;;0.68;;
2928;SDS011;1474;51.460;7.150;2023-03-14T16:18:03;2.22;;;0.88;;
2928;SDS011;1474;51.460;7.150;2023-03-14T16:20:29;3.78;;;1.02;;
2928;SDS011;1474;51.460;7.150;2023-03-14T16:22:55;2.15;;;0.60;;
2928;SDS011;1474;51.460;7.150;2023-03-14T16:25:20;1.63;;;0.65;;
2928;SDS011;1474;51.460;7.150;2023-03-14T16:27:46;0.57;;;0.45;;
2928;SDS011;1474;51.460;7.150;2023-03-14T16:30:12;1.13;;;0.68;;
2928;SDS011;1474;51.460;7.150;2023-03-14T16:32:38;4.15;;;1.08;;
2928;SDS011;1474;51.460;7.150;2023-03-14T16:35:04;2.75;;;0.50;;
2928;SDS011;1474;51.460;7.150;2023-03-14T16:37:30;4.70;;;0.85;;
2928;SDS011;1474;51.460;7.150;2023-03-14T16:39:55;2.58;;;0.40;;
2928;SDS011;1474;51.460;7.150;2023-03-14T16:42:21;1.35;;;0.98;;
2928;SDS011;1474;51.460;7.150;2023-03-14T16:44:47;2.03;;;0.65;;